Pagrindinis puslapis
METAR-TAF:

METAR-TAF

Oro uostai :

Maragheh, Iranas

platuma: 37-20-55N, ilguma: 046-07-35E, Aukštis: 1340 m

Dabartinis oras

Ataskaita buvo paskelbta 1 valandą ir 20 minutes, ne 18:00 UTC
Vėjas 10 kt iš Rytų/Pietryčių
Temperatūra -1°C
Drėgmė 100%
Slėgis 1022 hPa
Matomumas: 1100 m
Išsisklaidę debesys ne aukštis 3000 ft
Apsiniaukę ne aukštis 8000 ft
sniegas, rūkana

METAR: OITM 161800Z 11010KT 1100 -SN BR SCT030 OVC080 M01/M01 Q1022

Laikas: 22:50 (19:20 UTC)


TAF: trūkstamas

Orai ataskaitas ir orų prognozės (METAR, TAF).

turimą stotys yra geltonos ir raudonos taškus žemėlapyje.

Perkelti pele per norėdami pamatyti stoties vardą.

Tada spustelėkite, norėdami matyti oro stebėjimo ir prognozės.

Norėdami pakeisti žemėlapį: spustelėkite ant žalios mygtukų su juodo kryžiaus žemyn,; žalią mygtuką su brūkšneliu, jei norite nutolinti; arba žalių rodyklių gretimoms žemėlapius.


METAR-TAF: